Terminal Aerodrome Forecast
Issued by NWS

Home | Current Version | Previous Version | Text Only | Print | Product List | Glossary On
Versions: 1 2 3 4 5 6 7 8 9 10 11 12 13 14 15
000
FTUS41 KCLE 101915 AAA
TAFFDY
TAF AMD
KFDY 101915Z 1019/1118 25010KT P6SM OVC030
     FM110300 24005KT 6SM -SN OVC025
      TEMPO 1104/1106 3SM -SN OVC015
     FM110600 15007KT 2SM -SN OVC015
      TEMPO 1106/1110 1SM -SN
     FM111000 14012G20KT 5SM -SN OVC020=

USA.gov is the U.S. government's official web portal to all federal, state and local government web resources and services.